GCXO/TFN METAR and TAF weather

Enter ICAO airport designator
Station Type Date Time Source
GCXO METAR 2020/04/08 22:00 UTC NOAA

GCXO 082200Z 29008KT 250V320 CAVOK 19/02 Q1023 NOSIG


Station Type Date Time Source
GCXO Decoded METAR 2020/04/08 22:00 UTC NOAA

Tenerife / Los Rodeos, Spain (GCXO) 28-28N 016-19W 617M
Apr 08, 2020 - 06:00 PM EDT / 2020.04.08 2200 UTC
Wind: from the WNW (290 degrees) at 9 MPH (8 KT) (direction variable):0
Visibility: greater than 7 mile(s):0
Temperature: 66 F (19 C)
Dew Point: 35 F (2 C)
Relative Humidity: 32%
Pressure (altimeter): 30.21 in. Hg (1023 hPa)
ob: GCXO 082200Z 29008KT 250V320 CAVOK 19/02 Q1023 NOSIG
cycle: 22

Station Type Date Time Source
GCXO TAF 2020/04/08 21:31 UTC NOAA

TAF GCXO 082000Z 0821/0921 30009KT 9999 FEW005 TX24/0914Z TN13/0906Z PROB30
TEMPO 0821/0910 4900 BCFG BKN001

Example: see airport list